Time;durP1;ratioP1;P1;durP2;ratioP2;P2;SDS_P1;SDS_P2;PMS_P1;PMS_P2;Temp;Humidity;BMP_temperature;BMP_pressure;BME280_temperature;BME280_humidity;BME280_pressure;Samples;Min_cycle;Max_cycle;Signal;HPM_P1;HPM_P2
2021/03/29 00:01:00;;;;;;;;;21.29;19.29;;;;;12.95;31.38;100121.94;5669994;28;6498050;-61
2021/03/29 00:04:06;;;;;;;;;19.00;16.67;;;;;12.93;31.22;100134.03;5671501;27;5734522;-61
2021/03/29 00:07:18;;;;;;;;;17.50;14.67;;;;;12.91;31.48;100130.66;5687924;27;5728254;-60
2021/03/29 00:10:26;;;;;;;;;20.17;19.33;;;;;12.90;31.51;100134.44;5691635;27;5760637;-61
2021/03/29 00:13:34;;;;;;;;;22.00;19.00;;;;;12.62;31.51;100090.44;5683108;27;5740106;-60
2021/03/29 00:16:41;;;;;;;;;18.29;18.00;;;;;12.84;31.80;100127.13;5682522;27;5755388;-61
2021/03/29 00:19:51;;;;;;;;;21.29;20.00;;;;;12.83;32.04;100131.72;5697941;27;6510545;-60
2021/03/29 00:22:58;;;;;;;;;19.00;17.14;;;;;12.78;32.13;100133.38;5684365;27;5719434;-61
2021/03/29 00:26:00;;;;;;;;;23.00;20.00;;;;;12.73;32.37;100139.41;5668568;27;3914932;-60
2021/03/29 00:29:17;;;;;;;;;22.00;20.00;;;;;12.64;32.53;100137.09;5690896;27;5764862;-61
2021/03/29 00:32:22;;;;;;;;;22.33;21.00;;;;;12.54;32.80;100134.78;5676360;27;4411667;-60
2021/03/29 00:35:33;;;;;;;;;21.86;19.86;;;;;12.42;33.10;100131.81;5685382;27;6498090;-60
2021/03/29 00:38:44;;;;;;;;;26.14;23.00;;;;;12.42;33.13;100139.09;5669274;28;6565176;-60
2021/03/29 00:41:52;;;;;;;;;27.00;23.33;;;;;12.35;33.47;100144.50;5666372;28;5782419;-60
2021/03/29 00:45:01;;;;;;;;;28.14;25.29;;;;;12.08;33.72;100116.50;5670121;28;6514709;-60
2021/03/29 00:48:08;;;;;;;;;28.00;27.00;;;;;12.01;33.84;100114.81;5649757;27;4494961;-60
2021/03/29 00:51:17;;;;;;;;;27.43;25.43;;;;;12.12;33.91;100146.66;5658316;27;5807538;-60
2021/03/29 00:54:33;;;;;;;;;29.00;25.29;;;;;12.05;34.12;100149.38;5667481;28;6548076;-60
2021/03/29 00:57:43;;;;;;;;;29.00;26.33;;;;;12.07;34.21;100149.16;5668259;28;5772069;-60
2021/03/29 01:00:52;;;;;;;;;31.00;28.00;;;;;12.01;34.32;100161.63;5664281;27;6541833;-60
2021/03/29 01:04:03;;;;;;;;;27.29;24.29;;;;;11.95;34.79;100162.41;5669049;28;5787653;-60
2021/03/29 01:07:12;;;;;;;;;29.00;26.00;;;;;11.89;34.64;100146.97;5688017;27;6519917;-60
2021/03/29 01:10:17;;;;;;;;;28.00;25.00;;;;;11.88;34.29;100160.69;5653103;28;4432492;-60
2021/03/29 01:13:26;;;;;;;;;26.00;24.00;;;;;11.89;34.27;100157.78;5668658;28;6535587;-60
2021/03/29 01:16:40;;;;;;;;;28.29;25.71;;;;;11.93;34.06;100163.63;5669941;27;6520245;-60
2021/03/29 01:20:05;;;;;;;;;24.29;22.71;;;;;11.93;34.12;100166.31;5667380;28;5802712;-60
2021/03/29 01:23:10;;;;;;;;;24.50;24.00;;;;;11.92;33.90;100160.13;5653608;28;4425209;-60
2021/03/29 01:26:31;;;;;;;;;24.00;22.33;;;;;11.96;34.07;100152.44;5670015;28;5762699;-60
2021/03/29 01:29:36;;;;;;;;;24.67;21.00;;;;;11.94;34.06;100155.31;5654394;28;4277330;-60
2021/03/29 01:32:43;;;;;;;;;25.00;23.00;;;;;11.96;34.00;100155.97;5638500;28;6504280;-60
2021/03/29 01:35:53;;;;;;;;;24.33;22.33;;;;;11.97;34.04;100156.81;5665355;27;4242984;-60
2021/03/29 01:39:01;;;;;;;;;26.29;24.00;;;;;11.93;34.02;100161.75;5682275;27;6542185;-60
2021/03/29 01:42:11;;;;;;;;;25.57;24.00;;;;;11.93;34.05;100156.34;5681101;27;6477254;-61
2021/03/29 01:45:19;;;;;;;;;24.00;22.00;;;;;11.79;33.94;100138.41;5694579;27;6510534;-60
2021/03/29 01:48:27;;;;;;;;;25.29;23.00;;;;;11.93;34.03;100153.66;5692538;27;6529287;-61
2021/03/29 01:51:32;;;;;;;;;24.00;22.00;;;;;11.93;33.85;100148.25;5675307;27;4232468;-61
2021/03/29 01:54:37;;;;;;;;;23.71;20.71;;;;;11.90;34.07;100153.22;5659469;27;6507468;-61
2021/03/29 01:57:43;;;;;;;;;20.71;19.71;;;;;11.92;34.02;100154.72;5661195;27;6467136;-61
2021/03/29 02:00:52;;;;;;;;;23.71;21.86;;;;;11.94;34.05;100157.19;5681321;27;6513709;-61
2021/03/29 02:04:00;;;;;;;;;23.71;20.00;;;;;11.92;34.11;100157.41;5688355;27;5762687;-61
2021/03/29 02:07:06;;;;;;;;;23.00;22.00;;;;;11.85;34.31;100137.59;5654826;27;3907191;-61
2021/03/29 02:10:18;;;;;;;;;22.43;19.43;;;;;11.97;34.13;100146.81;5657824;28;6529686;-61
2021/03/29 02:13:26;;;;;;;;;20.33;19.33;;;;;11.86;34.16;100139.28;5644650;28;4572634;-61
2021/03/29 02:16:30;;;;;;;;;18.83;17.00;;;;;11.90;34.09;100140.53;5640457;28;5753292;-60
2021/03/29 02:19:38;;;;;;;;;17.00;15.67;;;;;11.96;34.07;100136.22;5670212;28;5744920;-61
2021/03/29 02:22:44;;;;;;;;;15.33;14.33;;;;;11.98;34.23;100140.38;5663066;28;5706426;-61
2021/03/29 02:25:53;;;;;;;;;18.29;17.29;;;;;12.03;34.13;100137.91;5668208;27;5758457;-61
2021/03/29 02:28:59;;;;;;;;;18.14;16.71;;;;;12.09;34.12;100137.09;5656933;28;5749154;-61
2021/03/29 02:32:07;;;;;;;;;16.00;15.14;;;;;12.09;34.18;100141.69;5668404;28;6462683;-61
2021/03/29 02:35:15;;;;;;;;;19.17;16.67;;;;;11.93;34.02;100126.63;5668447;27;5758472;-61
2021/03/29 02:38:21;;;;;;;;;18.71;17.00;;;;;11.95;34.07;100134.53;5658719;27;6480367;-61
2021/03/29 02:41:31;;;;;;;;;19.50;18.00;;;;;12.07;34.35;100146.47;5661324;27;5758840;-60
2021/03/29 02:44:40;;;;;;;;;21.00;17.00;;;;;12.05;34.31;100130.44;5683125;27;5785554;-60
2021/03/29 02:47:46;;;;;;;;;17.57;15.57;;;;;12.01;34.47;100131.88;5680452;27;5752282;-60
2021/03/29 02:50:57;;;;;;;;;16.86;16.00;;;;;12.07;34.41;100133.75;5690334;27;6477186;-60
2021/03/29 02:54:07;;;;;;;;;20.50;18.00;;;;;12.11;34.44;100131.50;5688135;27;5727248;-61
2021/03/29 02:57:16;;;;;;;;;18.40;16.80;;;;;12.10;34.48;100140.66;5681181;27;5749165;-60
2021/03/29 03:00:24;;;;;;;;;16.33;15.17;;;;;12.09;34.54;100128.16;5681942;27;5733548;-61
2021/03/29 03:03:28;;;;;;;;;17.00;16.00;;;;;12.13;34.65;100134.81;5675671;27;4087753;-61
2021/03/29 03:06:35;;;;;;;;;18.00;15.00;;;;;12.11;34.28;100139.63;5670998;27;5725175;-61
2021/03/29 03:09:45;;;;;;;;;18.67;17.00;;;;;12.17;34.59;100146.09;5669691;28;5758524;-61
2021/03/29 03:12:52;;;;;;;;;17.33;17.00;;;;;12.24;34.28;100150.47;5670565;27;5754322;-61
2021/03/29 03:15:57;;;;;;;;;17.00;15.83;;;;;12.29;34.34;100150.72;5658458;28;5747011;-61
2021/03/29 03:19:04;;;;;;;;;16.00;14.00;;;;;12.32;34.31;100144.88;5668601;28;5731404;-61
2021/03/29 03:22:12;;;;;;;;;14.83;14.00;;;;;12.41;34.06;100137.44;5669938;28;5703322;-61
2021/03/29 03:25:22;;;;;;;;;17.33;14.33;;;;;12.43;34.23;100143.47;5658680;27;5731379;-61
2021/03/29 03:28:36;;;;;;;;;18.40;17.00;;;;;12.49;34.42;100148.91;5644331;28;4522600;-61
2021/03/29 03:31:43;;;;;;;;;21.29;19.57;;;;;12.50;34.58;100155.16;5659487;27;5781521;-61
2021/03/29 03:34:50;;;;;;;;;20.00;19.00;;;;;12.51;34.56;100152.22;5666971;27;5755364;-61
2021/03/29 03:38:01;;;;;;;;;22.14;19.00;;;;;12.46;34.77;100148.50;5690026;27;6510533;-61
2021/03/29 03:41:09;;;;;;;;;23.00;21.00;;;;;12.33;34.58;100124.09;5676020;27;4378913;-61
2021/03/29 03:44:19;;;;;;;;;24.43;22.86;;;;;12.49;34.72;100146.22;5687409;27;6503294;-60
2021/03/29 03:47:24;;;;;;;;;25.00;24.00;;;;;12.49;34.78;100145.38;5665765;27;4616891;-61
2021/03/29 03:50:32;;;;;;;;;24.71;22.00;;;;;12.50;34.72;100144.34;5687668;27;6505859;-61
2021/03/29 03:53:38;;;;;;;;;22.14;20.86;;;;;12.45;34.63;100133.28;5681017;27;6510590;-61
2021/03/29 03:56:45;;;;;;;;;22.29;21.00;;;;;12.54;34.57;100146.44;5680334;27;6516830;-61
2021/03/29 03:59:49;;;;;;;;;20.50;18.00;;;;;12.54;34.61;100142.88;5672545;27;4468921;-61
2021/03/29 04:02:58;;;;;;;;;21.71;21.29;;;;;12.58;34.36;100149.56;5686940;27;6507445;-61
2021/03/29 04:06:05;;;;;;;;;22.71;20.43;;;;;12.63;34.51;100143.53;5665619;27;6518934;-61
2021/03/29 04:09:34;;;;;;;;;22.83;21.67;;;;;12.61;34.34;100149.13;5669023;28;5775167;-61
2021/03/29 04:12:38;;;;;;;;;26.33;24.00;;;;;12.61;34.28;100142.91;5654619;28;4208574;-61
2021/03/29 04:15:47;;;;;;;;;25.00;22.71;;;;;12.67;34.08;100142.91;5668787;27;5783615;-61
2021/03/29 04:18:52;;;;;;;;;24.29;22.71;;;;;12.71;34.27;100163.09;5637578;28;6520986;-61
2021/03/29 04:21:58;;;;;;;;;27.86;24.00;;;;;12.69;34.30;100156.25;5661026;27;5749591;-61
2021/03/29 04:25:09;;;;;;;;;27.50;24.50;;;;;12.70;34.49;100171.47;5665932;28;5762761;-61
2021/03/29 04:28:17;;;;;;;;;25.00;22.83;;;;;12.59;34.37;100145.81;5669603;28;5786651;-61
2021/03/29 04:31:25;;;;;;;;;24.43;21.57;;;;;12.73;34.40;100169.16;5669902;28;6512629;-61
2021/03/29 04:34:32;;;;;;;;;23.00;21.71;;;;;12.76;34.38;100176.88;5660792;27;6510605;-61
2021/03/29 04:37:37;;;;;;;;;26.33;23.33;;;;;12.78;34.45;100168.53;5654199;27;4233578;-61
2021/03/29 04:40:45;;;;;;;;;22.00;19.71;;;;;12.51;34.49;100119.78;5671433;27;6504276;-61
2021/03/29 04:43:51;;;;;;;;;24.00;23.29;;;;;12.82;34.28;100170.63;5661914;28;5743345;-61
2021/03/29 04:46:57;;;;;;;;;24.43;23.00;;;;;12.71;34.44;100148.75;5662617;28;6488044;-61
2021/03/29 04:50:01;;;;;;;;;24.00;23.00;;;;;12.86;34.53;100176.47;5647031;28;4607446;-61
2021/03/29 04:53:09;;;;;;;;;24.00;22.43;;;;;12.87;34.53;100178.97;5670898;27;5786035;-62
2021/03/29 04:56:12;;;;;;;;;27.00;25.00;;;;;12.83;34.66;100183.13;5649270;27;4546014;-61
2021/03/29 04:59:16;;;;;;;;;26.00;24.50;;;;;12.87;34.72;100183.56;5649901;27;4546026;-62
2021/03/29 05:02:23;;;;;;;;;27.71;25.71;;;;;12.87;34.74;100189.81;5642352;28;5794359;-62
2021/03/29 05:05:32;;;;;;;;;27.00;24.29;;;;;12.85;34.26;100169.41;5669583;27;6502205;-62
2021/03/29 05:08:36;;;;;;;;;23.00;22.00;;;;;13.04;34.43;100192.97;5652912;27;4367339;-61
2021/03/29 05:11:47;;;;;;;;;23.50;22.00;;;;;13.08;33.95;100199.63;5641222;28;4471013;-61
2021/03/29 05:14:52;;;;;;;;;24.00;21.00;;;;;13.12;34.14;100198.22;5653299;28;4176272;-61
2021/03/29 05:17:59;;;;;;;;;25.71;23.71;;;;;13.20;34.25;100186.34;5666312;28;6510569;-62
2021/03/29 05:21:06;;;;;;;;;23.86;23.00;;;;;13.25;33.92;100194.66;5657711;28;6526182;-61
2021/03/29 05:24:14;;;;;;;;;22.43;20.43;;;;;13.34;33.80;100182.63;5669627;28;6508450;-61
2021/03/29 05:27:22;;;;;;;;;23.57;20.14;;;;;13.41;33.62;100186.97;5664735;27;6514712;-62
2021/03/29 05:30:30;;;;;;;;;22.70;21.20;;;;;13.47;33.66;100185.31;5661265;28;6518875;-61
2021/03/29 05:33:38;;;;;;;;;29.00;24.71;;;;;13.54;33.54;100178.00;5663193;27;5803502;-61
2021/03/29 05:36:42;;;;;;;;;21.00;19.00;;;;;13.62;33.63;100180.53;5627576;27;4568910;-61
2021/03/29 05:39:50;;;;;;;;;20.29;20.00;;;;;13.63;33.17;100168.66;5665804;28;6498053;-63
2021/03/29 05:42:58;;;;;;;;;18.00;16.00;;;;;13.76;33.25;100182.16;5668584;28;5750148;-63
2021/03/29 05:46:02;;;;;;;;;19.67;17.83;;;;;13.86;33.24;100179.84;5659120;27;5734563;-63
2021/03/29 05:49:08;;;;;;;;;17.00;15.83;;;;;13.91;33.00;100181.09;5659692;27;5760946;-63
2021/03/29 05:52:17;;;;;;;;;19.67;18.83;;;;;13.98;32.93;100185.44;5663329;28;5743966;-62
2021/03/29 05:55:27;;;;;;;;;20.00;18.71;;;;;14.05;33.16;100183.56;5646387;27;5736655;-62
2021/03/29 05:58:41;;;;;;;;;17.80;16.80;;;;;14.14;32.96;100197.72;5640627;28;4508574;-62
2021/03/29 06:01:52;;;;;;;;;19.33;17.00;;;;;14.25;32.79;100194.34;5664543;28;5743958;-63
2021/03/29 06:04:59;;;;;;;;;15.83;14.83;;;;;14.35;32.80;100185.75;5640588;28;5748084;-62
2021/03/29 06:08:08;;;;;;;;;16.00;15.29;;;;;14.54;32.62;100201.16;5667340;27;5740768;-63
2021/03/29 06:11:25;;;;;;;;;16.29;15.71;;;;;14.57;32.80;100203.44;5661676;27;6485597;-62
2021/03/29 06:14:34;;;;;;;;;20.14;16.00;;;;;14.69;32.54;100207.16;5638632;27;6489728;-62
2021/03/29 06:17:42;;;;;;;;;17.80;15.80;;;;;14.82;32.60;100203.53;5650530;28;5758663;-61
2021/03/29 06:21:05;;;;;;;;;18.00;17.00;;;;;14.85;32.47;100203.94;5657558;28;5764707;-62
2021/03/29 06:24:11;;;;;;;;;15.83;15.00;;;;;15.00;32.37;100199.03;5664479;27;5723073;-62
2021/03/29 06:27:15;;;;;;;;;15.33;15.33;;;;;15.00;32.04;100193.59;5650288;28;4540844;-62
2021/03/29 06:30:24;;;;;;;;;18.67;17.00;;;;;15.09;32.60;100200.44;5640861;28;4575211;-62
2021/03/29 06:33:44;;;;;;;;;20.43;18.00;;;;;15.17;32.46;100194.75;5665019;27;5759162;-62
2021/03/29 06:36:48;;;;;;;;;21.00;20.00;;;;;15.25;32.23;100198.25;5652036;27;3923233;-63
2021/03/29 06:40:07;;;;;;;;;21.00;19.00;;;;;15.35;32.29;100190.41;5660774;27;6502221;-62
2021/03/29 06:43:23;;;;;;;;;20.00;18.57;;;;;15.40;32.45;100190.59;5664603;28;5747123;-62
2021/03/29 06:46:29;;;;;;;;;18.17;15.83;;;;;15.47;32.57;100194.09;5618333;28;5760537;-61
2021/03/29 06:49:46;;;;;;;;;16.00;15.00;;;;;15.55;32.25;100199.28;5665319;27;5727220;-60
2021/03/29 06:52:50;;;;;;;;;20.00;19.00;;;;;15.54;32.21;100181.34;5631666;28;3918962;-61
2021/03/29 06:55:57;;;;;;;;;20.57;19.00;;;;;15.74;32.12;100192.84;5651825;28;6494929;-61
2021/03/29 06:59:13;;;;;;;;;20.29;17.71;;;;;15.81;31.80;100182.75;5649078;28;5733640;-62
2021/03/29 07:02:35;;;;;;;;;18.17;17.17;;;;;15.97;31.86;100190.31;5663685;28;5762698;-62
2021/03/29 07:05:42;;;;;;;;;17.17;16.00;;;;;16.02;31.89;100195.09;5657901;28;5758489;-62
2021/03/29 07:08:47;;;;;;;;;19.00;17.00;;;;;16.18;31.67;100188.19;5653869;28;5739755;-62
2021/03/29 07:11:51;;;;;;;;;18.00;17.00;;;;;16.32;31.67;100181.56;5652186;27;3225256;-61
2021/03/29 07:15:00;;;;;;;;;19.56;17.56;;;;;16.46;31.73;100189.34;5654665;27;5750218;-61
2021/03/29 07:18:08;;;;;;;;;20.83;16.83;;;;;16.64;31.38;100187.69;5661595;28;5730416;-62
2021/03/29 07:21:16;;;;;;;;;16.83;16.33;;;;;16.73;31.02;100183.56;5661749;27;5745980;-62
2021/03/29 07:24:27;;;;;;;;;16.00;15.00;;;;;16.89;30.99;100186.50;5656059;28;5727346;-61
2021/03/29 07:27:38;;;;;;;;;16.29;15.00;;;;;17.13;31.56;100187.41;5633638;28;6470405;-62
2021/03/29 07:30:48;;;;;;;;;20.00;17.67;;;;;17.21;31.01;100186.22;5661094;28;5740158;-61
2021/03/29 07:33:54;;;;;;;;;14.67;14.33;;;;;17.12;31.06;100176.72;5654158;28;5725188;-61
2021/03/29 07:37:02;;;;;;;;;16.57;15.86;;;;;17.22;31.28;100193.34;5663190;28;5760569;-62
2021/03/29 07:40:41;;;;;;;;;15.33;14.17;;;;;17.36;30.82;100188.50;5657983;27;5723034;-62
2021/03/29 07:44:13;;;;;;;;;15.00;14.00;;;;;17.34;31.12;100191.50;5636019;28;4973086;-62
2021/03/29 07:47:54;;;;;;;;;15.00;13.29;;;;;17.23;30.91;100195.00;5668328;27;5691809;-63
2021/03/29 07:51:09;;;;;;;;;15.71;14.00;;;;;17.26;31.02;100200.81;5657420;27;5703330;-61
2021/03/29 07:54:49;;;;;;;;;16.00;14.17;;;;;17.33;31.10;100196.09;5656759;27;5726270;-62
2021/03/29 07:58:15;;;;;;;;;16.29;16.00;;;;;17.40;31.22;100206.88;5655023;28;6488715;-62
2021/03/29 08:01:18;;;;;;;;;19.00;17.00;;;;;17.43;31.09;100208.31;5643571;28;3903540;-60
2021/03/29 08:05:04;;;;;;;;;16.71;16.29;;;;;17.44;31.25;100204.53;5661579;28;5758637;-61
2021/03/29 08:08:53;;;;;;;;;18.71;17.00;;;;;17.61;31.41;100208.25;5664493;28;6465760;-61
2021/03/29 08:12:04;;;;;;;;;16.00;16.00;;;;;17.62;31.21;100202.59;5621980;28;6498101;-60
2021/03/29 08:15:10;;;;;;;;;20.67;18.00;;;;;17.78;31.43;100206.50;5657142;28;5758505;-62
2021/03/29 08:18:18;;;;;;;;;19.33;18.00;;;;;17.96;30.93;100202.81;5665432;28;5749458;-62
2021/03/29 08:21:48;;;;;;;;;20.00;19.00;;;;;17.99;31.00;100202.34;5665087;28;6498023;-61
2021/03/29 08:24:55;;;;;;;;;18.57;17.14;;;;;18.12;30.92;100200.22;5654603;28;5742991;-61
2021/03/29 08:28:02;;;;;;;;;18.33;17.00;;;;;18.22;30.64;100206.97;5663940;28;5742868;-61
2021/03/29 08:31:07;;;;;;;;;19.67;17.00;;;;;18.32;30.59;100202.56;5653305;28;5736631;-62
2021/03/29 08:34:19;;;;;;;;;18.00;16.67;;;;;18.33;30.40;100200.63;5664714;28;5732441;-61
2021/03/29 08:37:29;;;;;;;;;16.00;16.00;;;;;18.41;30.42;100209.31;5655515;27;5758535;-61
2021/03/29 08:40:36;;;;;;;;;18.33;15.67;;;;;18.53;30.42;100212.00;5664755;28;5752262;-62
2021/03/29 08:43:44;;;;;;;;;17.50;15.17;;;;;18.53;30.37;100204.66;5658834;28;5749094;-62
2021/03/29 08:46:50;;;;;;;;;16.00;14.00;;;;;18.68;30.42;100208.78;5650956;28;4583575;-61
2021/03/29 08:49:59;;;;;;;;;10.20;9.80;;;;;18.58;29.95;100203.94;5662696;27;4930416;-62
2021/03/29 08:53:03;;;;;;;;;8.67;8.00;;;;;18.65;30.17;100203.81;5653165;28;3829423;-61
2021/03/29 08:56:07;;;;;;;;;8.00;8.00;;;;;18.61;30.06;100208.94;5656124;28;4449257;-62
2021/03/29 08:59:11;;;;;;;;;9.00;9.00;;;;;18.64;29.96;100202.97;5656497;27;4886725;-61
2021/03/29 09:02:18;;;;;;;;;9.67;8.00;;;;;18.63;30.13;100203.22;5665263;27;4908028;-61
2021/03/29 09:05:26;;;;;;;;;7.70;7.40;;;;;18.52;29.90;100204.91;5680596;27;4145548;-61
2021/03/29 09:08:32;;;;;;;;;9.00;8.40;;;;;18.57;29.67;100205.84;5689789;28;4862751;-62
2021/03/29 09:11:39;;;;;;;;;6.00;6.00;;;;;18.56;29.65;100206.09;5656849;27;4860678;-62
2021/03/29 09:14:42;;;;;;;;;7.00;6.60;;;;;18.59;29.86;100208.34;5658471;27;4863784;-62
2021/03/29 09:17:54;;;;;;;;;9.00;7.00;;;;;18.58;29.78;100214.88;5657083;27;4857535;-61
2021/03/29 09:21:02;;;;;;;;;7.00;6.56;;;;;18.58;29.71;100214.88;5668243;28;4854843;-62
2021/03/29 09:24:20;;;;;;;;;9.00;8.00;;;;;18.61;29.40;100203.47;5665162;27;5588747;-61
2021/03/29 09:27:31;;;;;;;;;9.20;8.00;;;;;18.62;29.57;100199.66;5686664;28;4879468;-61
2021/03/29 09:30:36;;;;;;;;;9.60;9.00;;;;;18.80;29.78;100202.22;5667239;27;4910622;-62
2021/03/29 09:33:40;;;;;;;;;7.00;6.00;;;;;18.81;29.60;100206.63;5648891;28;4858521;-61
2021/03/29 09:36:48;;;;;;;;;7.00;7.00;;;;;18.87;29.49;100202.06;5691168;27;4879349;-62
2021/03/29 09:39:57;;;;;;;;;8.00;8.00;;;;;18.91;29.62;100211.44;5663334;27;4870042;-62
2021/03/29 09:43:02;;;;;;;;;9.00;8.00;;;;;18.95;29.13;100215.34;5657232;27;4878354;-61
2021/03/29 09:46:05;;;;;;;;;8.00;6.00;;;;;19.04;29.28;100214.72;5649553;27;4859585;-61
2021/03/29 09:49:10;;;;;;;;;9.00;8.00;;;;;19.07;29.24;100215.28;5645584;27;4864822;-60
2021/03/29 09:52:15;;;;;;;;;8.00;7.00;;;;;19.22;28.92;100210.09;5659174;27;4309631;-61
2021/03/29 09:55:18;;;;;;;;;8.00;7.00;;;;;19.29;28.56;100216.25;5662582;27;4867899;-61
2021/03/29 09:58:24;;;;;;;;;8.00;7.00;;;;;19.51;28.60;100205.44;5650244;27;4145094;-61
2021/03/29 10:01:28;;;;;;;;;7.40;7.40;;;;;19.68;28.71;100206.28;5656272;27;4870003;-61
2021/03/29 10:04:45;;;;;;;;;9.00;8.00;;;;;19.87;27.95;100189.34;5660969;27;5593951;-61
2021/03/29 10:07:51;;;;;;;;;8.60;8.00;;;;;20.04;27.73;100183.81;5656031;27;4882469;-61
2021/03/29 10:11:00;;;;;;;;;7.60;7.60;;;;;20.33;27.60;100184.53;5654865;27;4880434;-61
2021/03/29 10:14:05;;;;;;;;;8.80;7.00;;;;;20.50;27.59;100177.09;5664171;27;4872101;-61
2021/03/29 10:17:15;;;;;;;;;9.00;9.00;;;;;20.64;26.86;100177.53;5652127;27;4884594;-60
2021/03/29 10:20:20;;;;;;;;;8.40;7.80;;;;;20.70;26.72;100171.84;5649736;27;4874165;-60
2021/03/29 10:23:29;;;;;;;;;7.00;6.00;;;;;20.91;27.04;100177.56;5655322;27;4850295;-60
2021/03/29 10:26:37;;;;;;;;;9.56;8.78;;;;;21.18;25.99;100176.50;5679746;28;5615787;-61
2021/03/29 10:29:42;;;;;;;;;8.80;7.80;;;;;21.34;26.06;100161.00;5653166;27;4874230;-60
2021/03/29 10:32:51;;;;;;;;;10.00;9.00;;;;;21.87;26.82;100173.75;5682736;27;4902294;-60
2021/03/29 10:35:53;;;;;;;;;9.00;7.60;;;;;22.26;25.04;100167.97;5658777;27;4874149;-59
2021/03/29 10:38:58;;;;;;;;;9.83;8.00;;;;;22.61;24.95;100164.56;5646746;27;5631469;-59
2021/03/29 10:42:04;;;;;;;;;11.00;9.00;;;;;22.92;24.54;100166.31;5666463;27;4337703;-60
2021/03/29 10:45:11;;;;;;;;;9.00;8.00;;;;;23.08;24.85;100162.50;5667612;27;4867875;-60
2021/03/29 10:48:16;;;;;;;;;10.00;9.00;;;;;23.10;23.80;100154.81;5654654;27;4923181;-60
2021/03/29 10:51:21;;;;;;;;;9.00;9.00;;;;;23.04;23.33;100157.81;5666703;27;4861738;-60
2021/03/29 10:54:25;;;;;;;;;9.00;7.60;;;;;23.02;23.27;100155.31;5653780;28;4840877;-60
2021/03/29 10:57:28;;;;;;;;;9.00;8.00;;;;;22.95;23.84;100157.53;5651747;27;4869943;-62
2021/03/29 11:00:32;;;;;;;;;10.60;10.40;;;;;22.80;24.02;100161.06;5656836;27;4929449;-61
2021/03/29 11:03:36;;;;;;;;;11.00;10.00;;;;;22.78;23.79;100159.69;5656729;27;4939129;-62
2021/03/29 11:06:40;;;;;;;;;10.80;9.00;;;;;22.80;23.28;100163.00;5657299;27;4914807;-62
2021/03/29 11:09:48;;;;;;;;;9.00;8.78;;;;;22.78;23.58;100152.25;5671230;27;4874215;-61
2021/03/29 11:12:57;;;;;;;;;9.60;8.00;;;;;22.83;23.42;100159.69;5667559;27;4903324;-62
2021/03/29 11:16:06;;;;;;;;;10.50;9.00;;;;;22.89;22.90;100153.09;5667811;27;4912812;-61
2021/03/29 11:19:09;;;;;;;;;10.33;9.33;;;;;23.15;23.37;100138.31;5651649;27;5631872;-61
2021/03/29 11:22:14;;;;;;;;;7.80;7.00;;;;;23.04;22.67;100152.31;5668401;27;4866885;-61
2021/03/29 11:25:21;;;;;;;;;8.40;8.00;;;;;22.92;23.10;100144.31;5692061;27;4862714;-61
2021/03/29 11:28:24;;;;;;;;;8.00;8.00;;;;;22.94;23.13;100155.03;5652048;27;4886663;-61
2021/03/29 11:31:29;;;;;;;;;9.00;8.60;;;;;22.74;22.87;100158.56;5668987;27;4871036;-61
2021/03/29 11:34:33;;;;;;;;;8.20;8.00;;;;;22.60;23.55;100149.16;5666197;27;4870034;-60
2021/03/29 11:37:37;;;;;;;;;7.67;7.00;;;;;22.61;23.41;100151.63;5655371;27;4865927;-62
2021/03/29 11:40:43;;;;;;;;;9.40;8.00;;;;;22.56;23.71;100154.38;5666187;28;4884605;-62
2021/03/29 11:43:48;;;;;;;;;11.83;9.33;;;;;22.63;24.02;100140.34;5669190;27;5645039;-62
2021/03/29 11:46:53;;;;;;;;;8.40;8.00;;;;;22.66;23.31;100142.56;5671120;27;4874252;-61
2021/03/29 11:49:56;;;;;;;;;8.00;8.00;;;;;22.59;23.52;100144.75;5653689;27;5589773;-61
2021/03/29 11:53:04;;;;;;;;;8.90;8.00;;;;;22.44;23.32;100142.75;5692242;27;4873170;-62
2021/03/29 11:56:14;;;;;;;;;8.40;8.00;;;;;22.39;23.78;100140.81;5666623;28;4880427;-62
2021/03/29 11:59:20;;;;;;;;;9.00;9.00;;;;;22.35;24.22;100144.38;5674439;27;4861674;-62
2021/03/29 12:02:27;;;;;;;;;6.80;6.00;;;;;22.39;24.12;100142.75;5668635;27;4857506;-61
2021/03/29 12:05:33;;;;;;;;;7.00;7.00;;;;;22.38;24.00;100138.38;5658107;27;4857550;-61
2021/03/29 12:08:40;;;;;;;;;5.20;5.00;;;;;22.37;23.77;100140.28;5659871;27;4146128;-61
2021/03/29 12:12:01;;;;;;;;;5.80;5.80;;;;;22.36;24.12;100140.53;5670993;27;4842899;-62
2021/03/29 12:15:12;;;;;;;;;5.00;4.60;;;;;22.25;24.04;100133.34;5659693;27;4858541;-61
2021/03/29 12:18:18;;;;;;;;;6.00;5.00;;;;;21.92;24.71;100129.03;5648491;27;4856509;-60
2021/03/29 12:21:30;;;;;;;;;6.00;6.00;;;;;21.97;24.73;100135.41;5689125;27;4854382;-61
2021/03/29 12:24:36;;;;;;;;;6.00;6.00;;;;;21.90;25.15;100132.03;5665924;28;4857527;-60
2021/03/29 12:27:43;;;;;;;;;4.00;4.00;;;;;21.82;25.27;100129.78;5674452;27;4854440;-61
2021/03/29 12:30:47;;;;;;;;;6.00;5.00;;;;;21.85;24.90;100123.75;5657283;27;4148227;-61
2021/03/29 12:33:52;;;;;;;;;5.00;5.00;;;;;21.82;24.93;100117.97;5668920;27;4141869;-61
2021/03/29 12:36:56;;;;;;;;;6.40;5.00;;;;;21.94;25.57;100121.41;5658864;27;4864779;-60
2021/03/29 12:40:04;;;;;;;;;5.00;5.00;;;;;21.89;25.55;100113.91;5664396;27;4875199;-61
2021/03/29 12:43:11;;;;;;;;;7.20;7.20;;;;;21.90;25.66;100117.47;5657880;27;4858577;-61
2021/03/29 12:46:18;;;;;;;;;7.60;5.60;;;;;21.96;25.38;100121.94;5659092;27;4864080;-60
2021/03/29 12:49:22;;;;;;;;;6.00;6.00;;;;;21.78;25.42;100122.34;5648214;27;4854366;-62
2021/03/29 12:52:28;;;;;;;;;6.00;5.25;;;;;21.72;25.25;100087.72;5685773;27;3783428;-62
2021/03/29 12:55:32;;;;;;;;;6.00;6.00;;;;;21.68;25.63;100100.34;5657422;28;4859549;-62
2021/03/29 12:58:37;;;;;;;;;6.00;6.00;;;;;21.86;25.43;100119.94;5649049;27;4869991;-61
2021/03/29 13:01:42;;;;;;;;;8.50;6.00;;;;;21.98;25.33;100119.78;5659488;27;4160614;-62
2021/03/29 13:04:50;;;;;;;;;6.44;5.56;;;;;21.78;25.46;100101.22;5686114;28;4857525;-61
2021/03/29 13:07:58;;;;;;;;;7.00;6.00;;;;;21.88;25.41;100126.00;5651362;27;4141938;-62
2021/03/29 13:11:21;;;;;;;;;6.00;5.00;;;;;21.78;25.79;100122.34;5652761;28;4856468;-61
2021/03/29 13:14:25;;;;;;;;;7.40;7.40;;;;;21.78;25.52;100125.94;5657121;28;4878698;-61
2021/03/29 13:17:29;;;;;;;;;6.00;6.00;;;;;21.16;25.85;100029.72;5657967;27;4855428;-61
2021/03/29 13:20:36;;;;;;;;;6.11;6.00;;;;;21.79;25.97;100113.03;5675685;28;4863883;-60
2021/03/29 13:23:39;;;;;;;;;7.60;6.00;;;;;21.92;25.92;100121.63;5652611;28;4848100;-61
2021/03/29 13:27:26;;;;;;;;;7.00;7.00;;;;;21.92;25.98;100121.63;5654221;27;4879360;-60
2021/03/29 13:30:32;;;;;;;;;8.00;7.00;;;;;21.98;25.98;100112.38;5573632;28;4161076;-59
2021/03/29 13:33:36;;;;;;;;;6.50;6.50;;;;;21.92;26.08;100112.56;5563170;28;4865977;-59
2021/03/29 13:36:44;;;;;;;;;8.40;7.40;;;;;21.83;26.06;100117.72;5602847;28;4874302;-59
2021/03/29 13:39:46;;;;;;;;;7.60;7.60;;;;;21.93;26.32;100111.47;5548944;28;4867944;-60
2021/03/29 13:42:51;;;;;;;;;9.00;7.00;;;;;22.00;26.09;100106.59;5574677;28;4867910;-59
2021/03/29 13:45:59;;;;;;;;;7.22;6.89;;;;;22.07;26.18;100111.84;5596605;28;4857484;-59
2021/03/29 13:49:04;;;;;;;;;7.80;7.00;;;;;22.24;25.86;100110.53;5572955;28;4863733;-58
2021/03/29 13:52:08;;;;;;;;;8.00;7.00;;;;;22.34;25.50;100107.84;5586234;28;4160680;-59
2021/03/29 13:55:13;;;;;;;;;9.00;8.00;;;;;22.23;25.41;100113.56;5554926;28;4872058;-59
2021/03/29 13:58:17;;;;;;;;;9.60;8.00;;;;;22.15;25.91;100112.16;5573087;28;4895023;-59
2021/03/29 14:01:25;;;;;;;;;10.50;9.50;;;;;22.07;26.15;100115.41;5597227;28;4252371;-59
2021/03/29 14:04:34;;;;;;;;;24.29;21.86;;;;;22.03;26.28;100117.06;5592230;28;6518895;-60